KPAM/PAM METAR and TAF weather

Enter ICAO airport designator
Station Type Date Time Source
KPAM METAR 2020/03/31 10:06 UTC NOAA

KPAM 311006Z AUTO 22012KT 10SM SCT011 BKN065 24/22 A2984 RMK AO2 SLP108 $


Station Type Date Time Source
KPAM Decoded METAR 2020/03/31 10:06 UTC NOAA

Tyndall Air Force Base, FL, United States (KPAM) 30-04N 085-35W 13M
Mar 31, 2020 - 06:06 AM EDT / 2020.03.31 1006 UTC
Wind: from the SW (220 degrees) at 14 MPH (12 KT):0
Visibility: 10 mile(s):0
Sky conditions: mostly cloudy
Temperature: 75 F (24 C)
Dew Point: 71 F (22 C)
Relative Humidity: 88%
Pressure (altimeter): 29.84 in. Hg (1010 hPa)
ob: KPAM 311006Z AUTO 22012KT 10SM SCT011 BKN065 24/22 A2984 RMK AO2 SLP108
cycle: 10

Station Type Date Time Source
KPAM TAF 2020/03/30 19:06 UTC NOAA

TAF KPAM 301900Z 3019/0101 20009KT 9999 FEW200 QNH2984INS
BECMG 3114/3115 21015KT 6000 -SHRA BKN030 QNH2969INS
TEMPO 3118/0101 20020G30KT 4800 -TSRA BKN020CB TX28/3019Z TN19/3107Z LAST NO
AMDS AFT 3022 NEXT 3111

Example: see airport list